Time;durP1;ratioP1;P1;durP2;ratioP2;P2;SDS_P1;SDS_P2;PMS_P1;PMS_P2;Temp;Humidity;BMP_temperature;BMP_pressure;BME280_temperature;BME280_humidity;BME280_pressure;Samples;Min_cycle;Max_cycle;Signal;HPM_P1;HPM_P2
2022/07/16 00:02:40;;;;;;;2.90;2.27;;;;;;;21.63;53.62;99722.93;1691502;82;21783;-60
2022/07/16 00:05:07;;;;;;;2.75;2.35;;;;;;;21.64;53.54;99722.77;1696597;82;21534;-60
2022/07/16 00:07:34;;;;;;;3.83;2.47;;;;;;;21.60;53.58;99715.16;1704503;82;21672;-60
2022/07/16 00:10:03;;;;;;;7.35;2.90;;;;;;;21.52;53.55;99720.69;1694586;82;21464;-60
2022/07/16 00:12:30;;;;;;;3.85;2.40;;;;;;;21.50;53.41;99720.48;1696173;82;21518;-60
2022/07/16 00:14:58;;;;;;;7.92;2.62;;;;;;;21.48;53.61;99717.92;1692211;82;21790;-60
2022/07/16 00:17:25;;;;;;;4.03;2.02;;;;;;;21.53;53.46;99722.86;1688342;82;21103;-60
2022/07/16 00:19:52;;;;;;;6.10;2.25;;;;;;;21.67;53.16;99725.19;1693007;83;21411;-60
2022/07/16 00:22:19;;;;;;;7.55;2.50;;;;;;;21.66;52.87;99727.98;1694065;82;21588;-60
2022/07/16 00:24:46;;;;;;;3.10;2.62;;;;;;;21.69;52.71;99731.75;1683079;82;21748;-60
2022/07/16 00:27:12;;;;;;;2.65;2.00;;;;;;;21.55;52.70;99728.95;1695316;82;23433;-60
2022/07/16 00:29:39;;;;;;;4.40;2.30;;;;;;;21.56;52.68;99730.62;1686612;82;21580;-60
2022/07/16 00:32:06;;;;;;;3.42;2.10;;;;;;;21.60;52.52;99732.05;1687692;82;21581;-60
2022/07/16 00:34:33;;;;;;;3.47;2.25;;;;;;;21.57;52.34;99726.98;1698106;82;21451;-63
2022/07/16 00:37:00;;;;;;;4.28;2.40;;;;;;;21.42;52.16;99726.93;1692383;82;21475;-60
2022/07/16 00:39:27;;;;;;;3.17;2.30;;;;;;;21.31;52.22;99726.55;1693688;82;21762;-61
2022/07/16 00:43:23;;;;;;;3.40;2.20;;;;;;;19.72;57.60;99736.04;1790849;79;23222;-59
2022/07/16 00:45:49;;;;;;;3.67;2.22;;;;;;;20.83;53.64;99717.22;1750119;80;21065;-60
2022/07/16 00:48:16;;;;;;;4.30;2.30;;;;;;;20.95;53.11;99722.88;1749663;80;21833;-60
2022/07/16 00:50:42;;;;;;;2.75;2.25;;;;;;;20.94;53.02;99719.83;1754513;80;21570;-59
2022/07/16 00:53:10;;;;;;;2.50;2.12;;;;;;;20.86;53.30;99719.64;1751743;80;21552;-59
2022/07/16 00:55:38;;;;;;;7.67;2.35;;;;;;;20.78;53.27;99726.14;1757145;80;21590;-60
2022/07/16 00:58:04;;;;;;;;;;;;;;;20.73;53.55;99723.00;1763244;80;21620;-59
2022/07/16 01:00:31;;;;;;;3.58;2.30;;;;;;;20.74;53.70;99722.88;1756062;80;21216;-59
2022/07/16 01:03:00;;;;;;;4.58;2.52;;;;;;;20.74;53.44;99721.53;1748797;80;20981;-59
2022/07/16 01:05:27;;;;;;;2.60;2.40;;;;;;;20.56;53.43;99707.84;1760478;80;21606;-59
2022/07/16 01:07:54;;;;;;;8.85;2.50;;;;;;;20.57;53.53;99720.24;1760849;80;21525;-60
2022/07/16 01:10:23;;;;;;;3.77;2.10;;;;;;;20.47;53.80;99723.30;1710623;83;21593;-61
2022/07/16 01:12:51;;;;;;;2.62;2.12;;;;;;;20.51;53.85;99722.56;1694260;83;21561;-61
2022/07/16 01:15:19;;;;;;;1.95;1.77;;;;;;;20.55;53.98;99718.19;1699945;82;21534;-61
2022/07/16 01:17:46;;;;;;;2.90;2.47;;;;;;;20.60;54.02;99725.84;1704678;82;21519;-61
2022/07/16 01:20:13;;;;;;;4.85;2.33;;;;;;;20.56;54.24;99727.05;1701899;83;21027;-61
2022/07/16 01:22:40;;;;;;;3.62;2.00;;;;;;;20.57;54.37;99724.25;1695197;82;20959;-61
2022/07/16 01:25:11;;;;;;;3.58;2.12;;;;;;;20.60;54.17;99725.34;1695723;82;22254;-60
2022/07/16 01:27:38;;;;;;;3.12;1.82;;;;;;;20.47;54.38;99727.80;1693404;83;21512;-60
2022/07/16 01:30:08;;;;;;;4.22;1.80;;;;;;;20.58;54.30;99719.75;1702454;83;21060;-60
2022/07/16 01:32:37;;;;;;;3.27;2.08;;;;;;;20.46;54.36;99720.78;1703612;82;21628;-61
2022/07/16 01:35:04;;;;;;;5.85;2.10;;;;;;;20.43;54.32;99724.53;1696953;83;21428;-61
2022/07/16 01:37:33;;;;;;;3.85;1.80;;;;;;;20.36;54.35;99728.68;1696365;83;21762;-59
2022/07/16 01:40:00;;;;;;;4.62;2.12;;;;;;;20.31;54.29;99736.24;1692464;83;21440;-60
2022/07/16 01:42:26;;;;;;;5.40;2.25;;;;;;;20.23;54.77;99741.72;1702425;82;21564;-60
2022/07/16 01:44:53;;;;;;;3.62;1.70;;;;;;;20.29;54.68;99736.86;1706219;81;21127;-61
2022/07/16 01:47:20;;;;;;;3.08;1.90;;;;;;;20.33;54.64;99745.81;1708388;82;21461;-60
2022/07/16 01:49:46;;;;;;;4.15;2.40;;;;;;;20.34;54.45;99742.64;1715036;81;21795;-60
2022/07/16 01:52:20;;;;;;;4.97;1.90;;;;;;;20.27;54.41;99742.31;1711963;82;21506;-60
2022/07/16 01:54:52;;;;;;;3.65;1.80;;;;;;;20.25;54.25;99740.27;1682114;83;21607;-60
2022/07/16 01:57:20;;;;;;;1.70;1.60;;;;;;;20.26;54.18;99745.11;1682561;84;21501;-60
2022/07/16 01:59:46;;;;;;;5.67;1.62;;;;;;;20.28;54.04;99737.33;1713821;83;21571;-60
2022/07/16 02:02:13;;;;;;;2.20;1.70;;;;;;;20.33;53.84;99736.96;1696958;82;21850;-60
2022/07/16 02:04:41;;;;;;;2.62;1.52;;;;;;;20.29;53.65;99740.86;1706468;82;21455;-60
2022/07/16 02:07:08;;;;;;;2.75;2.17;;;;;;;20.21;53.57;99733.45;1715121;81;20967;-61
2022/07/16 02:09:35;;;;;;;3.17;1.80;;;;;;;20.18;53.45;99739.90;1706963;83;21468;-60
2022/07/16 02:12:03;;;;;;;3.10;1.95;;;;;;;20.19;53.39;99734.94;1707520;81;21448;-60
2022/07/16 02:14:30;;;;;;;6.10;1.87;;;;;;;20.18;53.49;99737.23;1715427;81;22119;-60
2022/07/16 02:16:56;;;;;;;3.85;1.45;;;;;;;20.25;53.45;99734.05;1688285;83;21053;-60
2022/07/16 02:19:23;;;;;;;5.45;1.72;;;;;;;20.28;53.45;99742.66;1715854;81;21433;-60
2022/07/16 02:21:50;;;;;;;1.97;1.80;;;;;;;20.30;53.39;99742.54;1675484;84;21484;-60
2022/07/16 02:24:17;;;;;;;4.20;1.70;;;;;;;20.28;53.45;99739.99;1708520;82;21697;-60
2022/07/16 02:26:44;;;;;;;3.35;1.50;;;;;;;20.29;53.39;99741.70;1686507;82;21895;-60
2022/07/16 02:29:11;;;;;;;4.92;1.90;;;;;;;20.26;53.50;99742.44;1708339;83;20982;-60
2022/07/16 02:31:39;;;;;;;2.87;1.72;;;;;;;20.25;53.72;99746.94;1684176;83;21455;-60
2022/07/16 02:34:06;;;;;;;1.47;1.20;;;;;;;20.32;53.77;99744.59;1715863;81;21455;-60
2022/07/16 02:36:33;;;;;;;1.70;1.60;;;;;;;20.41;53.69;99750.02;1700935;82;21084;-60
2022/07/16 02:39:00;;;;;;;4.12;1.40;;;;;;;20.42;53.70;99745.06;1720483;81;21837;-60
2022/07/16 02:41:26;;;;;;;5.47;1.80;;;;;;;20.42;53.62;99747.73;1709450;81;21003;-60
2022/07/16 02:43:53;;;;;;;1.67;1.50;;;;;;;20.39;53.58;99748.47;1679487;82;21054;-61
2022/07/16 02:46:19;;;;;;;2.20;1.47;;;;;;;20.42;53.65;99742.88;1685637;82;21516;-60
2022/07/16 02:48:46;;;;;;;1.45;1.15;;;;;;;20.48;53.77;99746.38;1687166;83;21025;-60
2022/07/16 02:51:15;;;;;;;3.92;1.60;;;;;;;20.50;53.80;99747.59;1711076;82;21605;-60
2022/07/16 02:53:42;;;;;;;3.02;1.45;;;;;;;20.49;53.83;99745.38;1707333;82;21498;-61
2022/07/16 02:56:09;;;;;;;;;;;;;;;20.44;53.91;99748.95;1710336;82;21479;-60
2022/07/16 02:58:35;;;;;;;6.78;1.70;;;;;;;20.40;54.25;99756.36;1704887;82;20453;-60
2022/07/16 03:01:02;;;;;;;4.45;1.80;;;;;;;20.37;54.27;99753.92;1703471;82;21659;-60
2022/07/16 03:03:30;;;;;;;2.02;1.65;;;;;;;20.43;54.44;99748.56;1700803;82;22036;-60
2022/07/16 03:05:57;;;;;;;3.95;1.62;;;;;;;20.51;54.28;99753.28;1710674;82;21474;-61
2022/07/16 03:08:24;;;;;;;3.70;2.22;;;;;;;20.58;54.10;99751.80;1668251;83;21451;-60
2022/07/16 03:10:51;;;;;;;1.92;1.62;;;;;;;20.62;53.90;99751.93;1709105;82;21630;-60
2022/07/16 03:13:19;;;;;;;3.25;1.67;;;;;;;20.68;53.84;99747.44;1716899;82;21512;-60
2022/07/16 03:15:45;;;;;;;3.67;1.75;;;;;;;20.79;53.89;99751.86;1709698;82;22108;-60
2022/07/16 03:18:12;;;;;;;2.72;1.62;;;;;;;20.91;53.75;99748.67;1704278;82;21651;-60
2022/07/16 03:20:39;;;;;;;2.25;1.45;;;;;;;21.01;53.50;99746.90;1665781;83;21019;-60
2022/07/16 03:23:06;;;;;;;2.87;1.75;;;;;;;21.09;53.47;99742.23;1704722;82;21104;-60
2022/07/16 03:25:33;;;;;;;4.22;1.70;;;;;;;21.08;53.26;99737.85;1709477;82;21424;-60
2022/07/16 03:28:00;;;;;;;1.50;1.40;;;;;;;21.13;53.09;99747.67;1705598;82;21816;-61
2022/07/16 03:30:26;;;;;;;3.83;1.47;;;;;;;21.31;53.38;99745.27;1704913;82;21544;-61
2022/07/16 03:32:54;;;;;;;4.37;1.80;;;;;;;21.31;53.38;99745.27;1705072;82;21472;-60
2022/07/16 03:35:21;;;;;;;3.00;1.72;;;;;;;21.41;53.26;99750.66;1693357;83;20957;-61
2022/07/16 03:40:34;;;;;;;4.40;2.00;;;;;;;21.51;53.13;99752.45;1701734;82;21916;-61
2022/07/16 03:43:00;;;;;;;5.58;2.00;;;;;;;21.51;53.13;99754.25;1681323;82;21432;-61
2022/07/16 03:45:28;;;;;;;3.12;1.40;;;;;;;21.58;53.42;99752.74;1726304;81;21555;-62
2022/07/16 03:47:55;;;;;;;3.95;1.70;;;;;;;21.73;53.17;99754.07;1717102;81;21518;-62
2022/07/16 03:50:21;;;;;;;4.37;1.82;;;;;;;21.83;53.13;99759.95;1720864;81;20970;-62
2022/07/16 03:52:48;;;;;;;2.80;2.00;;;;;;;21.87;52.84;99763.58;1714931;81;21836;-61
2022/07/16 03:55:15;;;;;;;2.13;1.93;;;;;;;21.90;52.82;99759.77;1718118;81;21512;-63
2022/07/16 03:57:42;;;;;;;1.92;1.57;;;;;;;21.91;52.46;99762.33;1708346;82;21515;-62
2022/07/16 04:00:10;;;;;;;5.55;1.80;;;;;;;21.99;52.43;99762.98;1723758;81;21593;-62
2022/07/16 04:02:39;;;;;;;3.83;1.67;;;;;;;22.13;52.41;99763.08;1729007;81;21618;-61
2022/07/16 04:05:07;;;;;;;4.65;1.70;;;;;;;22.24;52.43;99771.50;1716616;81;21499;-62
2022/07/16 04:07:34;;;;;;;4.20;1.90;;;;;;;22.27;52.21;99771.27;1723258;81;21408;-63
2022/07/16 04:10:01;;;;;;;3.52;2.20;;;;;;;22.40;52.03;99772.36;1714180;81;21439;-61
2022/07/16 04:12:29;;;;;;;4.75;2.22;;;;;;;22.41;51.38;99770.85;1718995;81;21403;-62
2022/07/16 04:14:57;;;;;;;3.65;1.47;;;;;;;22.45;51.30;99775.44;1708027;81;21502;-64
2022/07/16 04:17:24;;;;;;;6.17;2.00;;;;;;;22.58;51.62;99769.32;1651315;84;21810;-61
2022/07/16 04:19:52;;;;;;;1.70;1.60;;;;;;;22.77;51.23;99769.82;1722288;81;21551;-61
2022/07/16 04:22:18;;;;;;;3.12;1.77;;;;;;;22.87;50.68;99768.00;1707870;82;21521;-64
2022/07/16 04:24:45;;;;;;;4.17;2.05;;;;;;;22.90;50.50;99774.91;1715246;82;21515;-62
2022/07/16 04:27:12;;;;;;;4.40;2.40;;;;;;;22.91;50.24;99769.41;1716831;81;21602;-62
2022/07/16 04:29:40;;;;;;;4.95;1.82;;;;;;;22.98;50.19;99775.06;1712702;81;20993;-64
2022/07/16 04:32:07;;;;;;;3.58;1.60;;;;;;;23.04;50.13;99773.17;1716277;81;21633;-63
2022/07/16 04:34:33;;;;;;;3.75;1.80;;;;;;;23.17;51.06;99770.20;1720349;81;21439;-64
2022/07/16 04:37:00;;;;;;;3.05;1.70;;;;;;;23.28;51.39;99778.55;1716723;81;21503;-63
2022/07/16 04:39:27;;;;;;;3.10;1.70;;;;;;;23.35;50.30;99778.84;1725262;81;21045;-63
2022/07/16 04:41:54;;;;;;;2.42;1.60;;;;;;;23.36;49.83;99776.02;1711633;82;21809;-67
2022/07/16 04:44:21;;;;;;;3.72;2.05;;;;;;;23.37;49.54;99777.69;1698482;82;21571;-64
2022/07/16 04:46:49;;;;;;;2.60;1.70;;;;;;;23.50;49.60;99773.36;1741257;80;21423;-64
2022/07/16 04:49:16;;;;;;;4.92;3.27;;;;;;;23.50;49.60;99773.36;1742625;80;21484;-64
2022/07/16 04:51:43;;;;;;;2.80;1.70;;;;;;;23.56;49.13;99772.77;1745564;80;21693;-63
2022/07/16 04:54:10;;;;;;;3.72;2.00;;;;;;;23.64;48.71;99770.22;1741738;80;21859;-64
2022/07/16 04:56:37;;;;;;;3.17;2.07;;;;;;;23.76;48.79;99772.72;1745170;80;21538;-65
2022/07/16 04:59:04;;;;;;;6.33;2.10;;;;;;;23.89;48.93;99771.41;1744072;80;21464;-64
2022/07/16 05:01:30;;;;;;;2.95;2.15;;;;;;;23.95;48.79;99778.02;1745561;80;21966;-64
2022/07/16 05:03:57;;;;;;;4.22;1.95;;;;;;;24.00;48.26;99771.72;1743895;80;21519;-65
2022/07/16 05:06:25;;;;;;;2.58;2.33;;;;;;;24.07;47.83;99774.16;1745332;80;21803;-61
2022/07/16 05:08:56;;;;;;;7.53;2.12;;;;;;;24.12;47.97;99771.02;1755163;80;21130;-63
2022/07/16 05:11:24;;;;;;;3.72;1.90;;;;;;;24.17;47.74;99778.64;1743698;80;21413;-63
2022/07/16 05:13:53;;;;;;;4.43;1.90;;;;;;;24.21;47.79;99773.31;1746704;80;21501;-62
2022/07/16 05:16:20;;;;;;;4.22;1.90;;;;;;;24.35;47.53;99775.97;1750069;80;21561;-63
2022/07/16 05:18:47;;;;;;;2.83;1.85;;;;;;;24.46;47.47;99763.66;1753456;80;21809;-63
2022/07/16 05:21:14;;;;;;;6.03;1.82;;;;;;;24.55;47.61;99767.31;1746553;80;21479;-62
2022/07/16 05:25:55;;;;;;;2.20;1.77;;;;;;;23.32;51.07;99775.45;1803220;78;23219;-62
2022/07/16 05:28:22;;;;;;;4.03;1.87;;;;;;;24.57;47.15;99766.66;1760902;79;21554;-63
2022/07/16 05:30:49;;;;;;;8.93;1.90;;;;;;;24.57;47.15;99766.66;1769783;79;22198;-63
2022/07/16 05:33:17;;;;;;;3.85;1.67;;;;;;;24.67;47.17;99768.77;1764775;79;21177;-63
2022/07/16 05:35:43;;;;;;;6.95;2.67;;;;;;;24.79;47.40;99768.89;1774813;79;21397;-63
2022/07/16 05:38:10;;;;;;;7.95;2.40;;;;;;;24.79;47.40;99768.89;1770162;79;21525;-62
2022/07/16 05:40:38;;;;;;;3.87;1.90;;;;;;;24.88;46.91;99765.75;1771478;79;21574;-64
2022/07/16 05:43:05;;;;;;;2.27;1.57;;;;;;;24.94;46.98;99769.19;1758857;80;21816;-64
2022/07/16 05:45:32;;;;;;;9.18;2.35;;;;;;;24.94;46.45;99771.88;1755090;80;21421;-64
2022/07/16 05:47:59;;;;;;;3.20;1.87;;;;;;;24.96;45.98;99772.56;1764070;80;21522;-64
2022/07/16 05:50:26;;;;;;;3.72;2.20;;;;;;;25.00;45.99;99773.10;1756399;80;21319;-67
2022/07/16 05:52:52;;;;;;;4.05;1.77;;;;;;;25.07;46.01;99770.11;1768143;79;21541;-65
